Time;durP1;ratioP1;P1;durP2;ratioP2;P2;SDS_P1;SDS_P2;PMS_P1;PMS_P2;Temp;Humidity;BMP_temperature;BMP_pressure;BME280_temperature;BME280_humidity;BME280_pressure;Samples;Min_cycle;Max_cycle;Signal;HPM_P1;HPM_P2
2024/03/01 00:01:17;;;;;;;20.45;8.43;;;7.40;99.90;;;;;;5048402;28;20584;-63
2024/03/01 00:03:42;;;;;;;20.45;8.48;;;7.30;99.90;;;;;;5041911;28;20908;-64
2024/03/01 00:06:08;;;;;;;18.70;7.97;;;7.20;99.90;;;;;;5052462;28;20106;-64
2024/03/01 00:08:33;;;;;;;25.05;10.68;;;7.30;99.90;;;;;;5053590;28;20035;-64
2024/03/01 00:10:59;;;;;;;22.65;8.77;;;7.30;99.90;;;;;;5045441;28;20061;-65
2024/03/01 00:13:25;;;;;;;21.83;9.20;;;7.30;99.90;;;;;;5052727;28;20045;-64
2024/03/01 00:15:50;;;;;;;21.73;8.57;;;7.20;99.90;;;;;;5040188;28;20037;-63
2024/03/01 00:18:17;;;;;;;21.48;8.73;;;7.30;99.90;;;;;;5045961;28;20369;-63
2024/03/01 00:20:42;;;;;;;18.75;8.27;;;7.30;99.90;;;;;;5046619;28;20491;-63
2024/03/01 00:23:08;;;;;;;22.88;9.23;;;7.30;99.90;;;;;;5037331;28;20087;-64
2024/03/01 00:25:33;;;;;;;22.17;8.77;;;7.30;99.90;;;;;;5047058;28;20044;-63
2024/03/01 00:27:59;;;;;;;24.65;9.85;;;7.30;99.90;;;;;;5051903;28;20028;-64
2024/03/01 00:30:26;;;;;;;20.08;8.05;;;7.30;99.90;;;;;;5052137;28;20088;-63
2024/03/01 00:32:51;;;;;;;23.90;9.13;;;7.40;99.90;;;;;;5051474;28;20053;-63
2024/03/01 00:35:17;;;;;;;23.50;10.25;;;7.40;99.90;;;;;;5050199;28;20476;-64
2024/03/01 00:37:43;;;;;;;23.55;9.52;;;7.50;99.90;;;;;;5051072;28;20032;-64
2024/03/01 00:40:08;;;;;;;21.95;9.52;;;7.50;99.90;;;;;;5048549;28;20849;-63
2024/03/01 00:42:34;;;;;;;22.05;8.60;;;7.50;99.90;;;;;;5052952;28;20029;-63
2024/03/01 00:45:00;;;;;;;20.73;9.10;;;7.60;99.90;;;;;;5045423;28;20375;-63
2024/03/01 00:47:25;;;;;;;22.17;9.02;;;7.50;99.90;;;;;;5045563;28;20025;-64
2024/03/01 00:49:51;;;;;;;21.83;9.60;;;7.50;99.90;;;;;;5043784;28;20029;-63
2024/03/01 00:52:17;;;;;;;23.08;9.32;;;7.40;99.90;;;;;;5048281;28;20032;-63
2024/03/01 00:54:42;;;;;;;20.63;8.07;;;7.40;99.90;;;;;;5038224;28;20036;-63
2024/03/01 00:57:08;;;;;;;21.35;9.38;;;7.40;99.90;;;;;;5050494;28;20039;-63
2024/03/01 00:59:33;;;;;;;21.13;9.82;;;7.40;99.90;;;;;;5044426;28;20087;-63
2024/03/01 01:01:59;;;;;;;20.52;8.50;;;7.40;99.90;;;;;;5046487;28;20453;-63
2024/03/01 01:04:25;;;;;;;18.23;8.27;;;7.50;99.90;;;;;;5050823;28;20017;-63
2024/03/01 01:06:51;;;;;;;25.98;10.25;;;7.50;99.90;;;;;;5059941;28;20049;-63
2024/03/01 01:09:16;;;;;;;19.35;9.00;;;7.40;99.90;;;;;;5045627;28;20026;-62
2024/03/01 01:11:42;;;;;;;26.90;11.13;;;7.40;99.90;;;;;;5051238;28;20024;-63
2024/03/01 01:14:08;;;;;;;23.23;9.85;;;7.40;99.90;;;;;;5042709;28;20516;-63
2024/03/01 01:16:33;;;;;;;23.23;10.32;;;7.30;99.90;;;;;;5043110;28;20056;-63
2024/03/01 01:18:59;;;;;;;23.42;9.30;;;7.40;99.90;;;;;;5047457;28;20465;-63
2024/03/01 01:21:25;;;;;;;24.60;10.02;;;7.30;99.90;;;;;;5046921;28;20127;-63
2024/03/01 01:23:51;;;;;;;22.33;10.43;;;7.30;99.90;;;;;;5042435;28;20030;-63
2024/03/01 01:26:17;;;;;;;21.75;9.50;;;7.30;99.90;;;;;;5051795;28;20021;-63
2024/03/01 01:28:43;;;;;;;21.65;9.95;;;7.40;99.90;;;;;;5054034;28;20369;-64
2024/03/01 01:31:08;;;;;;;26.88;11.32;;;7.40;99.90;;;;;;5054232;28;20017;-63
2024/03/01 01:33:34;;;;;;;20.23;8.70;;;7.30;99.90;;;;;;5052786;28;20028;-62
2024/03/01 01:36:00;;;;;;;23.50;10.10;;;7.30;99.90;;;;;;5049753;28;20025;-63
2024/03/01 01:38:25;;;;;;;20.65;9.00;;;7.30;99.90;;;;;;5050097;28;20052;-64
2024/03/01 01:40:52;;;;;;;25.80;10.57;;;7.30;99.90;;;;;;5051350;28;20758;-63
2024/03/01 01:43:18;;;;;;;18.60;8.13;;;7.20;99.90;;;;;;5038615;28;20141;-64
2024/03/01 01:45:43;;;;;;;21.40;10.05;;;7.20;99.90;;;;;;5050496;28;20039;-63
2024/03/01 01:48:09;;;;;;;22.60;9.05;;;7.20;99.90;;;;;;5041991;28;20096;-63
2024/03/01 01:50:36;;;;;;;22.20;10.27;;;7.20;99.90;;;;;;5054590;28;20036;-63
2024/03/01 01:53:03;;;;;;;22.02;8.95;;;7.20;99.90;;;;;;5045445;28;20025;-63
2024/03/01 01:55:29;;;;;;;23.08;10.13;;;7.20;99.90;;;;;;5046914;28;20071;-63
2024/03/01 01:57:56;;;;;;;26.20;11.30;;;7.20;99.90;;;;;;5053350;28;20033;-63
2024/03/01 02:00:22;;;;;;;22.15;9.55;;;7.20;99.90;;;;;;5041895;28;20057;-64
2024/03/01 02:02:50;;;;;;;23.67;9.88;;;7.20;99.90;;;;;;5046929;28;20040;-64
2024/03/01 02:05:18;;;;;;;25.17;11.40;;;7.20;99.90;;;;;;5054792;28;20032;-64
2024/03/01 02:07:44;;;;;;;19.80;9.35;;;7.20;99.90;;;;;;5048828;28;20029;-63
2024/03/01 02:10:19;;;;;;;22.00;9.52;;;7.20;99.90;;;;;;5056760;28;20074;-63
2024/03/01 02:12:58;;;;;;;21.52;9.18;;;7.30;99.90;;;;;;5051366;28;20353;-63
2024/03/01 02:15:25;;;;;;;23.23;9.60;;;7.30;99.90;;;;;;5040178;28;20053;-63
2024/03/01 02:17:51;;;;;;;22.52;8.38;;;7.30;99.90;;;;;;5056046;28;20036;-63
2024/03/01 02:20:19;;;;;;;19.83;8.50;;;7.30;99.90;;;;;;5040242;28;20052;-63
2024/03/01 02:22:51;;;;;;;22.98;9.93;;;7.20;99.90;;;;;;5047330;28;20037;-63
2024/03/01 02:25:17;;;;;;;22.48;9.80;;;7.20;99.90;;;;;;5048676;28;20409;-64
2024/03/01 02:27:47;;;;;;;22.02;9.98;;;7.20;99.90;;;;;;5050030;28;20108;-64
2024/03/01 02:30:14;;;;;;;18.50;8.00;;;7.30;99.90;;;;;;5044983;28;20481;-63
2024/03/01 02:32:39;;;;;;;25.17;9.75;;;7.30;99.90;;;;;;5053687;28;20379;-64
2024/03/01 02:35:06;;;;;;;21.55;8.75;;;7.20;99.90;;;;;;5046625;28;20028;-63
2024/03/01 02:37:31;;;;;;;23.15;9.93;;;7.20;99.90;;;;;;5057254;28;20028;-63
2024/03/01 02:39:57;;;;;;;21.83;8.55;;;7.20;99.90;;;;;;5055518;28;20098;-63
2024/03/01 02:42:22;;;;;;;23.58;9.95;;;7.20;99.90;;;;;;5064031;28;20086;-63
2024/03/01 02:44:48;;;;;;;19.85;9.25;;;7.20;99.90;;;;;;5050352;28;20021;-63
2024/03/01 02:47:14;;;;;;;24.50;9.55;;;7.10;99.90;;;;;;5057839;28;20025;-64
2024/03/01 02:49:41;;;;;;;22.75;9.93;;;7.20;99.90;;;;;;5052230;28;20051;-64
2024/03/01 02:52:07;;;;;;;24.77;10.25;;;7.10;99.90;;;;;;5054474;28;20730;-63
2024/03/01 02:54:32;;;;;;;22.88;9.68;;;7.10;99.90;;;;;;5034708;28;20064;-64
2024/03/01 02:56:58;;;;;;;23.65;9.15;;;7.00;99.90;;;;;;5050748;28;20464;-64
2024/03/01 02:59:24;;;;;;;25.30;10.07;;;7.00;99.90;;;;;;5039407;28;20097;-63
2024/03/01 03:01:50;;;;;;;21.42;9.13;;;7.00;99.90;;;;;;5039157;28;20040;-63
2024/03/01 03:04:16;;;;;;;26.90;10.20;;;7.00;99.90;;;;;;5035484;28;20026;-63
2024/03/01 03:06:42;;;;;;;22.20;9.07;;;7.00;99.90;;;;;;5049806;28;20049;-63
2024/03/01 03:09:09;;;;;;;25.05;10.27;;;7.00;99.90;;;;;;5039911;28;20029;-63
2024/03/01 03:11:38;;;;;;;22.70;8.65;;;6.90;99.90;;;;;;5042706;28;20021;-63
2024/03/01 03:14:04;;;;;;;21.98;8.93;;;7.00;99.90;;;;;;5041578;28;20053;-63
2024/03/01 03:16:30;;;;;;;18.88;8.35;;;7.00;99.90;;;;;;5040558;28;20044;-63
2024/03/01 03:18:56;;;;;;;25.83;10.75;;;7.00;99.90;;;;;;5042266;28;20024;-63
2024/03/01 03:21:21;;;;;;;26.92;11.43;;;7.00;99.90;;;;;;5039257;28;20163;-63
2024/03/01 03:23:47;;;;;;;26.73;10.23;;;7.00;99.90;;;;;;5041290;28;20115;-63
2024/03/01 03:26:12;;;;;;;18.02;7.57;;;7.00;99.90;;;;;;5045792;28;20484;-64
2024/03/01 03:28:38;;;;;;;24.95;11.30;;;6.90;99.90;;;;;;5042703;28;20034;-64
2024/03/01 03:31:04;;;;;;;25.77;9.70;;;6.90;99.90;;;;;;5040857;28;20397;-63
2024/03/01 03:33:30;;;;;;;25.27;9.95;;;7.00;99.90;;;;;;5039911;28;20131;-63
2024/03/01 03:35:56;;;;;;;22.30;10.27;;;7.00;99.90;;;;;;5033171;28;20039;-63
2024/03/01 03:38:22;;;;;;;22.58;8.98;;;7.00;99.90;;;;;;5042124;28;20032;-64
2024/03/01 03:40:47;;;;;;;28.60;10.48;;;6.90;99.90;;;;;;5038614;28;20038;-63
2024/03/01 03:43:13;;;;;;;18.80;8.90;;;6.90;99.90;;;;;;5042240;28;20029;-63
2024/03/01 03:45:39;;;;;;;26.83;9.20;;;6.90;99.90;;;;;;5042328;28;20031;-64
2024/03/01 03:48:05;;;;;;;24.92;10.95;;;7.00;99.90;;;;;;5038260;28;20030;-63
2024/03/01 03:50:31;;;;;;;18.77;7.60;;;7.00;99.90;;;;;;5040532;28;20395;-63
2024/03/01 03:52:56;;;;;;;21.48;9.27;;;6.90;99.90;;;;;;5040249;28;20079;-63
2024/03/01 03:55:22;;;;;;;26.85;10.23;;;7.00;99.90;;;;;;5042214;28;20037;-63
2024/03/01 03:57:48;;;;;;;28.92;10.70;;;7.00;99.90;;;;;;5036784;28;20033;-63
2024/03/01 04:00:16;;;;;;;25.55;9.90;;;7.00;99.90;;;;;;5045841;28;20028;-63
2024/03/01 04:02:43;;;;;;;23.70;9.82;;;7.00;99.90;;;;;;5042743;28;20115;-63
2024/03/01 04:05:09;;;;;;;18.10;7.78;;;7.00;99.90;;;;;;5032056;28;20028;-63
2024/03/01 04:07:35;;;;;;;25.40;10.25;;;7.00;99.90;;;;;;5039159;28;20017;-63
2024/03/01 04:10:00;;;;;;;20.48;9.00;;;6.90;99.90;;;;;;5040699;28;20045;-63
2024/03/01 04:12:27;;;;;;;23.13;10.63;;;6.90;99.90;;;;;;5039913;28;20056;-63
2024/03/01 04:14:52;;;;;;;25.13;10.40;;;6.90;99.90;;;;;;5039444;28;20459;-63
2024/03/01 04:17:18;;;;;;;25.83;9.02;;;6.90;99.90;;;;;;5039421;28;20124;-63
2024/03/01 04:19:44;;;;;;;24.75;10.07;;;7.00;99.90;;;;;;5036738;28;20036;-63
2024/03/01 04:22:13;;;;;;;25.38;10.48;;;7.00;99.90;;;;;;5039530;28;20117;-63
2024/03/01 04:24:38;;;;;;;23.02;9.85;;;7.00;99.90;;;;;;5038342;28;20423;-63
2024/03/01 04:27:04;;;;;;;26.98;9.88;;;6.90;99.90;;;;;;5044554;28;20033;-63
2024/03/01 04:29:30;;;;;;;20.33;8.88;;;6.90;99.90;;;;;;5030118;28;20064;-63
2024/03/01 04:31:56;;;;;;;23.85;9.82;;;6.90;99.90;;;;;;5037771;28;20088;-63
2024/03/01 04:34:22;;;;;;;24.15;9.43;;;6.90;99.90;;;;;;5038747;28;20025;-62
2024/03/01 04:36:48;;;;;;;22.23;9.88;;;6.90;99.90;;;;;;5041281;28;20029;-63
2024/03/01 04:39:14;;;;;;;23.88;8.75;;;6.90;99.90;;;;;;5040679;28;20512;-63
2024/03/01 04:41:40;;;;;;;20.58;9.02;;;6.90;99.90;;;;;;5036255;28;20032;-63
2024/03/01 04:44:06;;;;;;;22.95;10.07;;;6.90;99.90;;;;;;5029242;28;20545;-63
2024/03/01 04:46:32;;;;;;;25.58;10.27;;;6.80;99.90;;;;;;5039834;28;20113;-63
2024/03/01 04:48:57;;;;;;;26.75;9.93;;;6.80;99.90;;;;;;5037496;28;20512;-64
2024/03/01 04:51:24;;;;;;;20.88;9.10;;;6.70;99.90;;;;;;5037330;28;20476;-63
2024/03/01 04:53:50;;;;;;;25.30;10.10;;;6.70;99.90;;;;;;5038172;28;20029;-63
2024/03/01 04:56:17;;;;;;;22.45;10.00;;;6.80;99.90;;;;;;5043706;28;20033;-63
2024/03/01 04:58:43;;;;;;;23.10;10.55;;;6.80;99.90;;;;;;5040729;28;20456;-63
2024/03/01 05:01:10;;;;;;;26.45;10.18;;;6.80;99.90;;;;;;5038396;28;20108;-64
2024/03/01 05:03:36;;;;;;;24.70;9.98;;;6.80;99.90;;;;;;5034361;28;20044;-64
2024/03/01 05:06:05;;;;;;;22.17;9.50;;;6.70;99.90;;;;;;5038032;28;20031;-63
2024/03/01 05:08:32;;;;;;;22.98;9.80;;;6.70;99.90;;;;;;5034879;28;20417;-63
2024/03/01 05:10:58;;;;;;;22.40;8.40;;;6.70;99.90;;;;;;5036973;28;20032;-63
2024/03/01 05:13:23;;;;;;;25.17;9.68;;;6.80;99.90;;;;;;5042375;28;20022;-63
2024/03/01 05:15:49;;;;;;;21.35;8.13;;;6.70;99.90;;;;;;5045192;28;20036;-63
2024/03/01 05:18:15;;;;;;;17.60;7.93;;;6.70;99.90;;;;;;5050012;28;20029;-62
2024/03/01 05:20:44;;;;;;;24.17;9.82;;;6.80;99.90;;;;;;5044053;28;20033;-64
2024/03/01 05:23:10;;;;;;;23.00;8.40;;;6.70;99.90;;;;;;5039368;28;20082;-64
2024/03/01 05:25:36;;;;;;;23.10;9.13;;;6.80;99.90;;;;;;5049907;28;20112;-63
2024/03/01 05:28:02;;;;;;;22.83;10.27;;;6.80;99.90;;;;;;5044910;28;20143;-63
2024/03/01 05:30:31;;;;;;;25.35;10.20;;;6.80;99.90;;;;;;5036001;28;20120;-64
2024/03/01 05:32:57;;;;;;;23.73;10.25;;;6.80;99.90;;;;;;5037006;28;20404;-63
2024/03/01 05:35:22;;;;;;;23.23;9.05;;;6.70;99.90;;;;;;5039557;28;20194;-64
2024/03/01 05:37:48;;;;;;;27.27;9.70;;;6.70;99.90;;;;;;5041141;28;20035;-63
2024/03/01 05:40:15;;;;;;;22.85;8.82;;;6.60;99.90;;;;;;5037416;28;20103;-64
2024/03/01 05:42:42;;;;;;;21.90;9.20;;;6.70;99.90;;;;;;5039887;28;20032;-64
2024/03/01 05:45:08;;;;;;;23.95;9.18;;;6.60;99.90;;;;;;5033243;28;20025;-63
2024/03/01 05:47:44;;;;;;;20.67;8.73;;;6.60;99.90;;;;;;5040330;28;20025;-64
2024/03/01 05:50:14;;;;;;;26.15;10.02;;;6.60;99.90;;;;;;5041083;28;20028;-63
2024/03/01 05:52:42;;;;;;;21.30;9.43;;;6.50;99.90;;;;;;5037589;28;20045;-64
2024/03/01 05:55:09;;;;;;;22.20;9.65;;;6.40;99.90;;;;;;5041504;28;20405;-64
2024/03/01 05:57:35;;;;;;;22.20;9.60;;;6.40;99.90;;;;;;5040060;28;20033;-63
2024/03/01 06:00:09;;;;;;;22.45;9.55;;;6.40;99.90;;;;;;5039123;28;20752;-64
2024/03/01 06:02:38;;;;;;;21.90;8.82;;;6.40;99.90;;;;;;5040263;28;20458;-63
2024/03/01 06:05:03;;;;;;;21.38;8.77;;;6.40;99.90;;;;;;5038786;28;20025;-64
2024/03/01 06:07:29;;;;;;;22.63;9.50;;;6.50;99.90;;;;;;5039219;28;20444;-63
2024/03/01 06:09:55;;;;;;;20.30;8.95;;;6.60;99.90;;;;;;5037459;28;20025;-63
2024/03/01 06:12:20;;;;;;;23.55;9.80;;;6.80;99.90;;;;;;5043672;28;20670;-65
2024/03/01 06:14:46;;;;;;;23.50;10.00;;;6.80;99.90;;;;;;5040238;28;20041;-63
2024/03/01 06:17:12;;;;;;;25.63;9.13;;;6.90;99.90;;;;;;5038659;28;20021;-63
2024/03/01 06:19:38;;;;;;;18.10;6.95;;;7.00;99.90;;;;;;5036312;28;20029;-63
2024/03/01 06:22:03;;;;;;;18.17;7.55;;;7.00;99.90;;;;;;5040715;28;20022;-63
2024/03/01 06:24:29;;;;;;;22.60;9.10;;;7.10;99.90;;;;;;5038536;28;20648;-64
2024/03/01 06:26:55;;;;;;;20.52;8.95;;;7.30;99.90;;;;;;5042931;28;20117;-63
2024/03/01 06:29:21;;;;;;;22.10;8.68;;;7.20;99.90;;;;;;5036991;28;20093;-63
2024/03/01 06:31:46;;;;;;;17.25;7.10;;;7.30;99.90;;;;;;5040000;28;20039;-63
2024/03/01 06:34:12;;;;;;;20.60;8.25;;;7.40;99.90;;;;;;5039877;28;20476;-63
2024/03/01 06:36:38;;;;;;;20.80;8.45;;;7.40;99.90;;;;;;5044364;28;20570;-61
2024/03/01 06:39:06;;;;;;;15.98;5.97;;;7.50;99.90;;;;;;5038105;28;20021;-63
2024/03/01 06:41:31;;;;;;;20.83;8.18;;;7.50;99.90;;;;;;5036397;28;20625;-63
2024/03/01 06:43:57;;;;;;;19.20;8.20;;;7.60;99.90;;;;;;5037271;28;20034;-62
2024/03/01 06:46:23;;;;;;;18.40;8.32;;;7.60;99.90;;;;;;5039680;28;20044;-64
2024/03/01 06:48:49;;;;;;;21.17;8.13;;;7.70;99.90;;;;;;5038499;28;20044;-64
2024/03/01 06:51:15;;;;;;;17.00;7.70;;;7.70;99.90;;;;;;5036941;28;20021;-63
2024/03/01 06:53:44;;;;;;;13.95;6.00;;;7.80;99.90;;;;;;5035181;28;20030;-63
2024/03/01 06:56:12;;;;;;;18.30;7.30;;;7.80;99.90;;;;;;5040811;28;20061;-63
2024/03/01 06:58:38;;;;;;;20.92;7.85;;;7.90;99.90;;;;;;5038299;28;20037;-63
2024/03/01 07:01:05;;;;;;;21.40;7.68;;;7.90;99.90;;;;;;5033142;28;20468;-63
2024/03/01 07:03:31;;;;;;;19.02;7.55;;;8.00;99.90;;;;;;5035081;28;20071;-63
2024/03/01 07:05:56;;;;;;;17.65;7.20;;;8.00;99.90;;;;;;5039650;28;20030;-63
2024/03/01 07:08:22;;;;;;;15.93;6.90;;;8.00;99.90;;;;;;5039304;28;20036;-63
2024/03/01 07:10:48;;;;;;;19.38;8.20;;;8.10;99.90;;;;;;5038590;28;20032;-64
2024/03/01 07:13:13;;;;;;;15.05;6.82;;;8.20;99.90;;;;;;5042254;28;20109;-63
2024/03/01 07:15:39;;;;;;;18.63;7.70;;;8.20;99.90;;;;;;5045078;28;20056;-64
2024/03/01 07:18:04;;;;;;;18.52;7.30;;;8.20;99.90;;;;;;5039575;28;20038;-63
2024/03/01 07:20:30;;;;;;;17.13;6.88;;;8.30;99.90;;;;;;5042045;28;20037;-64
2024/03/01 07:22:56;;;;;;;15.32;6.72;;;8.30;99.90;;;;;;5045078;28;20116;-62
2024/03/01 07:25:21;;;;;;;16.73;7.05;;;8.30;99.90;;;;;;5039998;28;20013;-63
2024/03/01 07:27:47;;;;;;;14.15;6.10;;;8.40;99.90;;;;;;5044667;28;20044;-62
2024/03/01 07:30:13;;;;;;;16.27;6.88;;;8.50;99.90;;;;;;5040525;28;20018;-63
2024/03/01 07:32:39;;;;;;;18.58;7.30;;;8.50;99.90;;;;;;5041444;28;20037;-63
2024/03/01 07:35:07;;;;;;;17.23;7.75;;;8.50;99.90;;;;;;5043456;28;20103;-63
2024/03/01 07:37:33;;;;;;;16.45;6.30;;;8.50;99.90;;;;;;5044263;28;20488;-63
2024/03/01 07:39:59;;;;;;;15.05;5.45;;;8.60;99.90;;;;;;5043842;28;20059;-64
2024/03/01 07:42:25;;;;;;;14.68;6.57;;;8.50;99.90;;;;;;5042174;28;20036;-63
2024/03/01 07:44:52;;;;;;;17.58;7.13;;;8.50;99.90;;;;;;5042624;28;20032;-64
2024/03/01 07:47:18;;;;;;;14.73;6.18;;;8.60;99.90;;;;;;5048144;28;20090;-63
2024/03/01 07:49:43;;;;;;;16.95;6.72;;;8.60;99.90;;;;;;5037619;28;20018;-63
2024/03/01 07:52:09;;;;;;;15.57;6.50;;;8.60;99.90;;;;;;5044036;28;20049;-64
2024/03/01 07:54:35;;;;;;;15.93;6.60;;;8.60;99.90;;;;;;5037726;28;20029;-63
2024/03/01 07:57:01;;;;;;;14.20;5.07;;;8.60;99.90;;;;;;5038719;28;20092;-63
2024/03/01 07:59:27;;;;;;;16.73;7.32;;;8.50;99.90;;;;;;5046127;28;20024;-64
2024/03/01 08:01:53;;;;;;;14.55;7.28;;;8.50;99.90;;;;;;5044772;28;20460;-63
2024/03/01 08:04:19;;;;;;;16.75;7.70;;;8.50;99.90;;;;;;5039768;28;20078;-63
2024/03/01 08:06:44;;;;;;;16.77;7.32;;;8.50;99.90;;;;;;5044679;28;20056;-63
2024/03/01 08:09:17;;;;;;;14.82;6.70;;;8.50;99.90;;;;;;5041351;28;20107;-63
2024/03/01 08:11:45;;;;;;;17.40;7.22;;;8.50;99.90;;;;;;5041773;28;20105;-63
2024/03/01 08:14:22;;;;;;;16.50;7.15;;;8.40;99.90;;;;;;5042376;28;20044;-64
2024/03/01 08:16:55;;;;;;;17.40;6.53;;;8.50;99.90;;;;;;5043615;28;20044;-64
2024/03/01 08:19:25;;;;;;;18.20;8.55;;;8.50;99.90;;;;;;5044572;28;20055;-63
2024/03/01 08:21:58;;;;;;;;;;;8.50;99.90;;;;;;5045177;28;20021;-63
2024/03/01 08:24:25;;;;;;;21.48;8.77;;;8.40;99.90;;;;;;5040152;28;19916;-63
2024/03/01 08:26:50;;;;;;;16.50;7.43;;;8.40;99.90;;;;;;5053688;28;20041;-64
2024/03/01 08:29:17;;;;;;;16.75;7.53;;;8.30;99.90;;;;;;5044796;28;20013;-63
2024/03/01 08:31:43;;;;;;;16.17;7.07;;;8.30;99.90;;;;;;5039270;28;20104;-63
2024/03/01 08:34:21;;;;;;;17.63;7.55;;;8.20;99.90;;;;;;5047280;28;20170;-64
2024/03/01 08:36:52;;;;;;;16.85;6.03;;;8.20;99.90;;;;;;5040438;28;20064;-63
2024/03/01 08:39:19;;;;;;;19.25;8.55;;;8.20;99.90;;;;;;5047339;28;20065;-63
2024/03/01 08:41:48;;;;;;;18.42;8.50;;;8.10;99.90;;;;;;5044475;28;20100;-64
2024/03/01 08:44:41;;;;;;;18.70;8.93;;;8.00;99.90;;;;;;5041442;28;20044;-63
2024/03/01 08:47:35;;;;;;;20.30;7.93;;;8.00;99.90;;;;;;5045652;28;20033;-64
2024/03/01 08:50:12;;;;;;;17.67;8.68;;;8.00;99.90;;;;;;5042492;28;20024;-64
2024/03/01 08:52:38;;;;;;;18.45;7.82;;;8.00;99.90;;;;;;5039292;28;20040;-63
2024/03/01 08:55:10;;;;;;;13.05;5.22;;;8.00;99.90;;;;;;5044232;28;20081;-64
2024/03/01 08:57:37;;;;;;;12.63;4.32;;;7.70;99.90;;;;;;5043504;28;20124;-64
2024/03/01 09:00:22;;;;;;;14.07;5.03;;;7.50;99.90;;;;;;5043239;28;20084;-62
2024/03/01 09:02:48;;;;;;;11.60;4.40;;;7.30;99.90;;;;;;5040946;28;20566;-62
2024/03/01 09:05:15;;;;;;;9.90;4.03;;;7.20;99.90;;;;;;5044344;28;20093;-64
2024/03/01 09:07:41;;;;;;;11.82;4.90;;;7.10;99.90;;;;;;5040346;28;20488;-63
2024/03/01 09:10:35;;;;;;;13.35;5.60;;;7.00;99.90;;;;;;5042820;28;20036;-64
2024/03/01 09:13:06;;;;;;;11.77;4.40;;;6.80;99.90;;;;;;5038532;28;20068;-65
2024/03/01 09:15:45;;;;;;;13.73;4.88;;;6.80;99.90;;;;;;5045890;28;20108;-63
2024/03/01 09:18:41;;;;;;;11.68;5.18;;;6.80;99.90;;;;;;5041963;28;20032;-64
2024/03/01 09:21:34;;;;;;;13.30;5.57;;;6.80;99.90;;;;;;5042856;28;20032;-63
2024/03/01 09:24:00;;;;;;;12.45;4.88;;;6.80;99.90;;;;;;5039902;28;20033;-63
2024/03/01 09:26:26;;;;;;;14.85;5.60;;;6.80;99.90;;;;;;5046242;28;20477;-64
2024/03/01 09:29:01;;;;;;;13.30;5.75;;;6.90;99.90;;;;;;5042915;28;20027;-63
2024/03/01 09:31:28;;;;;;;14.95;6.15;;;7.00;99.90;;;;;;5044786;28;20098;-64
2024/03/01 09:33:54;;;;;;;14.38;6.05;;;7.10;99.90;;;;;;5041748;28;20037;-65
2024/03/01 09:36:20;;;;;;;13.40;5.88;;;7.20;99.90;;;;;;5042948;28;20026;-64
2024/03/01 09:39:04;;;;;;;13.55;5.57;;;7.30;99.90;;;;;;5043091;28;20028;-64
2024/03/01 09:41:43;;;;;;;6.78;2.75;;;7.40;99.90;;;;;;5045586;28;20025;-64
2024/03/01 09:44:28;;;;;;;11.13;4.82;;;7.40;99.90;;;;;;5040855;28;20047;-63
2024/03/01 09:47:14;;;;;;;10.07;4.10;;;7.40;99.90;;;;;;5040594;28;20104;-64
2024/03/01 09:50:01;;;;;;;12.68;4.80;;;7.30;99.90;;;;;;5040969;28;20016;-64
2024/03/01 09:52:42;;;;;;;12.02;4.72;;;7.30;99.90;;;;;;5042362;28;20457;-63
2024/03/01 09:55:32;;;;;;;11.25;4.70;;;7.30;99.90;;;;;;5045651;28;20021;-65
2024/03/01 09:58:13;;;;;;;13.57;3.97;;;7.20;99.90;;;;;;5037622;28;20028;-64
2024/03/01 10:01:11;;;;;;;9.38;4.15;;;7.20;99.90;;;;;;5041661;28;20636;-64
2024/03/01 10:03:54;;;;;;;10.90;4.22;;;7.30;99.90;;;;;;5042270;28;20033;-64
2024/03/01 10:06:31;;;;;;;8.75;3.47;;;7.30;99.90;;;;;;5036046;28;20029;-63
2024/03/01 10:09:13;;;;;;;10.90;3.85;;;7.40;99.90;;;;;;5044223;28;20033;-63
2024/03/01 10:11:56;;;;;;;9.70;4.10;;;7.50;99.90;;;;;;5041282;28;20086;-63
2024/03/01 10:14:34;;;;;;;8.43;3.58;;;7.70;99.90;;;;;;5038105;28;20043;-63
2024/03/01 10:17:14;;;;;;;9.80;4.10;;;7.90;99.90;;;;;;5044236;28;20060;-64
2024/03/01 10:19:55;;;;;;;6.85;2.50;;;8.10;99.90;;;;;;5042276;28;20017;-65
2024/03/01 10:22:47;;;;;;;8.25;3.53;;;8.20;99.90;;;;;;5040264;28;20036;-63
2024/03/01 10:25:46;;;;;;;8.02;3.45;;;8.30;99.90;;;;;;5041220;28;20055;-63
2024/03/01 10:28:20;;;;;;;8.02;2.95;;;8.40;99.90;;;;;;5041726;28;20025;-63
2024/03/01 10:31:10;;;;;;;4.55;1.85;;;8.70;99.90;;;;;;5040041;28;20457;-63
2024/03/01 10:33:57;;;;;;;8.10;2.80;;;9.00;99.90;;;;;;5041364;28;20603;-63
2024/03/01 10:36:31;;;;;;;6.00;2.40;;;9.30;99.90;;;;;;5039375;28;20034;-63
2024/03/01 10:39:09;;;;;;;7.55;2.75;;;9.40;99.90;;;;;;5039111;28;20025;-64
2024/03/01 10:41:47;;;;;;;7.05;2.70;;;9.60;99.90;;;;;;5041949;28;20040;-64
2024/03/01 10:44:56;;;;;;;7.55;2.55;;;9.80;99.90;;;;;;5040795;28;20361;-64
2024/03/01 10:47:24;;;;;;;6.57;2.80;;;9.70;99.90;;;;;;4976817;28;20080;-64
2024/03/01 10:50:12;;;;;;;7.50;2.83;;;9.50;99.90;;;;;;5043765;28;20036;-63
2024/03/01 10:52:57;;;;;;;6.47;2.40;;;9.40;99.90;;;;;;5041815;28;20662;-63
2024/03/01 10:55:37;;;;;;;6.57;2.67;;;9.30;99.90;;;;;;5041604;28;20053;-63
2024/03/01 10:58:21;;;;;;;6.50;2.75;;;9.30;99.90;;;;;;5045756;28;20033;-64
2024/03/01 11:01:22;;;;;;;7.68;3.35;;;9.30;99.90;;;;;;5043377;28;20022;-65
2024/03/01 11:03:54;;;;;;;7.70;3.63;;;9.60;99.90;;;;;;5046344;28;20103;-64
2024/03/01 11:06:26;;;;;;;7.38;3.20;;;10.10;99.90;;;;;;5041348;28;20029;-64
2024/03/01 11:09:06;;;;;;;7.63;3.10;;;10.30;99.90;;;;;;5045818;28;20051;-64
2024/03/01 11:11:55;;;;;;;7.18;3.22;;;10.40;99.90;;;;;;5044616;28;20112;-64
2024/03/01 11:14:23;;;;;;;7.53;2.95;;;10.70;99.90;;;;;;5048604;28;20041;-64
2024/03/01 11:16:51;;;;;;;7.68;2.80;;;10.50;99.90;;;;;;5045028;28;20052;-63
2024/03/01 11:19:24;;;;;;;4.57;2.00;;;10.40;99.90;;;;;;5047173;28;20033;-64
2024/03/01 11:22:09;;;;;;;7.22;2.80;;;10.40;99.90;;;;;;5044521;28;20021;-64
2024/03/01 11:24:42;;;;;;;5.95;2.28;;;10.40;99.90;;;;;;5038417;28;20048;-64
2024/03/01 11:27:14;;;;;;;7.10;2.63;;;10.30;99.90;;;;;;5045426;28;20017;-64
2024/03/01 11:29:52;;;;;;;5.40;2.10;;;10.30;99.90;;;;;;5044493;28;20061;-63
2024/03/01 11:32:22;;;;;;;5.82;2.22;;;10.30;99.90;;;;;;5044966;28;20487;-64
2024/03/01 11:34:52;;;;;;;7.38;2.40;;;10.50;99.90;;;;;;5043795;28;20034;-64
2024/03/01 11:37:51;;;;;;;6.43;2.60;;;10.70;99.90;;;;;;5047700;28;20095;-64
2024/03/01 11:40:38;;;;;;;6.63;2.30;;;10.80;99.90;;;;;;5044929;28;20100;-64
2024/03/01 11:43:17;;;;;;;6.70;2.40;;;10.90;99.90;;;;;;5055574;28;20654;-64
2024/03/01 11:46:23;;;;;;;5.57;2.20;;;11.00;99.90;;;;;;5044460;28;20476;-63
2024/03/01 11:49:27;;;;;;;5.72;2.10;;;10.70;99.90;;;;;;5031675;28;20147;-63
2024/03/01 11:52:11;;;;;;;5.60;2.20;;;10.60;99.90;;;;;;4989483;28;20032;-63
2024/03/01 11:54:56;;;;;;;6.13;2.35;;;10.60;99.90;;;;;;5003711;28;20073;-64
2024/03/01 11:57:48;;;;;;;6.60;2.50;;;10.70;99.90;;;;;;5003519;28;20065;-64
2024/03/01 12:00:39;;;;;;;5.50;2.08;;;11.10;99.90;;;;;;5002683;28;20373;-64
2024/03/01 12:03:29;;;;;;;6.20;2.00;;;11.70;99.90;;;;;;4996672;28;20049;-65
2024/03/01 12:06:40;;;;;;;6.77;2.43;;;12.10;99.90;;;;;;5008947;28;20022;-64
2024/03/01 12:09:31;;;;;;;6.65;3.22;;;12.10;99.90;;;;;;4929934;29;20275;-65
2024/03/01 12:12:17;;;;;;;7.40;2.38;;;12.00;99.90;;;;;;4930712;29;20074;-65
2024/03/01 12:15:04;;;;;;;5.82;2.17;;;12.10;99.90;;;;;;4929797;29;20052;-64
2024/03/01 12:17:58;;;;;;;5.95;2.53;;;12.40;99.90;;;;;;4914799;29;20490;-64
2024/03/01 12:20:25;;;;;;;5.55;2.00;;;12.50;99.90;;;;;;4928917;29;20138;-64
2024/03/01 12:22:59;;;;;;;5.43;2.20;;;12.80;99.90;;;;;;4957904;28;20051;-64
2024/03/01 12:25:26;;;;;;;6.43;2.20;;;12.70;99.90;;;;;;4986821;28;20030;-64
2024/03/01 12:28:09;;;;;;;5.05;1.90;;;13.40;99.90;;;;;;4968786;28;20038;-64
2024/03/01 12:30:37;;;;;;;5.20;1.83;;;14.30;99.60;;;;;;4984114;28;20026;-64
2024/03/01 12:33:17;;;;;;;4.45;1.52;;;15.00;97.30;;;;;;4988047;28;20085;-64
2024/03/01 12:35:55;;;;;;;3.75;1.55;;;15.30;95.10;;;;;;4984029;28;20189;-64
2024/03/01 12:38:49;;;;;;;4.35;1.52;;;15.80;93.90;;;;;;4984884;28;20038;-64
2024/03/01 12:41:29;;;;;;;3.13;1.25;;;15.70;92.90;;;;;;5041171;28;20103;-65
2024/03/01 12:44:09;;;;;;;3.97;1.33;;;15.90;92.70;;;;;;5045788;28;20043;-64
2024/03/01 12:46:45;;;;;;;5.60;1.63;;;15.90;91.60;;;;;;5044552;28;20033;-64
2024/03/01 12:49:16;;;;;;;3.60;1.35;;;15.70;92.10;;;;;;5040353;28;20467;-64
2024/03/01 12:52:06;;;;;;;3.95;1.50;;;15.80;91.60;;;;;;5044793;28;20021;-64
2024/03/01 12:54:44;;;;;;;3.78;1.50;;;15.70;92.00;;;;;;5041159;28;20461;-65
2024/03/01 12:57:24;;;;;;;3.65;1.50;;;15.40;92.60;;;;;;5040614;28;20026;-65
2024/03/01 12:59:50;;;;;;;;;;;15.40;93.40;;;;;;5045708;28;20021;-65
2024/03/01 13:02:41;;;;;;;6.28;1.80;;;15.30;92.40;;;;;;5059055;28;19919;-65
2024/03/01 13:05:17;;;;;;;5.05;1.60;;;15.10;93.90;;;;;;5043095;28;20068;-65